sensor_id;sensor_type;location;lat;lon;timestamp;temperature;humidity
3842;DHT22;1936;47.074;15.336;2023-02-03T00:01:44;0.20;99.90
3842;DHT22;1936;47.074;15.336;2023-02-03T00:03:48;0.20;99.90
3842;DHT22;1936;47.074;15.336;2023-02-03T00:05:51;0.10;99.90
3842;DHT22;1936;47.074;15.336;2023-02-03T00:07:55;0.10;99.90
3842;DHT22;1936;47.074;15.336;2023-02-03T00:09:58;0.00;99.90
3842;DHT22;1936;47.074;15.336;2023-02-03T00:12:04;0.10;99.90
3842;DHT22;1936;47.074;15.336;2023-02-03T00:14:07;0.10;99.90
3842;DHT22;1936;47.074;15.336;2023-02-03T00:16:10;0.00;99.90
3842;DHT22;1936;47.074;15.336;2023-02-03T00:18:14;0.00;99.90
3842;DHT22;1936;47.074;15.336;2023-02-03T00:20:17;-0.10;99.90
3842;DHT22;1936;47.074;15.336;2023-02-03T00:22:21;0.00;99.90
3842;DHT22;1936;47.074;15.336;2023-02-03T00:24:24;-0.10;99.90
3842;DHT22;1936;47.074;15.336;2023-02-03T00:26:28;-0.10;99.90
3842;DHT22;1936;47.074;15.336;2023-02-03T00:28:33;0.00;99.90
3842;DHT22;1936;47.074;15.336;2023-02-03T00:30:36;0.00;99.90
3842;DHT22;1936;47.074;15.336;2023-02-03T00:32:40;-0.10;99.90
3842;DHT22;1936;47.074;15.336;2023-02-03T00:34:44;-0.10;99.90
3842;DHT22;1936;47.074;15.336;2023-02-03T00:36:47;-0.20;99.90
3842;DHT22;1936;47.074;15.336;2023-02-03T00:38:51;-0.20;99.90
3842;DHT22;1936;47.074;15.336;2023-02-03T00:40:54;-0.20;99.90
3842;DHT22;1936;47.074;15.336;2023-02-03T00:43:01;-0.10;99.90
3842;DHT22;1936;47.074;15.336;2023-02-03T00:45:06;-0.20;99.90
3842;DHT22;1936;47.074;15.336;2023-02-03T00:47:10;-0.20;99.90
3842;DHT22;1936;47.074;15.336;2023-02-03T00:49:13;-0.20;99.90
3842;DHT22;1936;47.074;15.336;2023-02-03T00:51:17;-0.10;99.90
3842;DHT22;1936;47.074;15.336;2023-02-03T00:53:20;-0.10;99.90
3842;DHT22;1936;47.074;15.336;2023-02-03T00:55:23;0.00;99.90
3842;DHT22;1936;47.074;15.336;2023-02-03T00:57:27;0.00;99.90
3842;DHT22;1936;47.074;15.336;2023-02-03T00:59:30;0.10;99.90
3842;DHT22;1936;47.074;15.336;2023-02-03T01:01:35;0.10;99.90
3842;DHT22;1936;47.074;15.336;2023-02-03T01:03:39;0.10;99.90
3842;DHT22;1936;47.074;15.336;2023-02-03T01:05:42;0.10;99.90
3842;DHT22;1936;47.074;15.336;2023-02-03T01:07:45;0.10;99.90
3842;DHT22;1936;47.074;15.336;2023-02-03T01:09:49;0.10;99.90
3842;DHT22;1936;47.074;15.336;2023-02-03T01:11:52;0.30;99.90
3842;DHT22;1936;47.074;15.336;2023-02-03T01:13:56;0.50;99.90
3842;DHT22;1936;47.074;15.336;2023-02-03T01:16:05;0.50;99.90
3842;DHT22;1936;47.074;15.336;2023-02-03T01:18:10;0.40;99.90
3842;DHT22;1936;47.074;15.336;2023-02-03T01:20:13;0.30;99.90
3842;DHT22;1936;47.074;15.336;2023-02-03T01:22:18;0.30;99.90
3842;DHT22;1936;47.074;15.336;2023-02-03T01:24:21;0.30;99.90
3842;DHT22;1936;47.074;15.336;2023-02-03T01:26:24;0.30;99.90
3842;DHT22;1936;47.074;15.336;2023-02-03T01:28:28;0.30;99.90
3842;DHT22;1936;47.074;15.336;2023-02-03T01:30:31;0.30;99.90
3842;DHT22;1936;47.074;15.336;2023-02-03T01:32:35;0.30;99.90
3842;DHT22;1936;47.074;15.336;2023-02-03T01:34:40;0.30;99.90
3842;DHT22;1936;47.074;15.336;2023-02-03T01:36:43;0.30;99.90
3842;DHT22;1936;47.074;15.336;2023-02-03T01:38:48;0.30;99.90
3842;DHT22;1936;47.074;15.336;2023-02-03T01:40:52;0.30;99.90
3842;DHT22;1936;47.074;15.336;2023-02-03T01:42:56;0.30;99.90
3842;DHT22;1936;47.074;15.336;2023-02-03T01:44:59;0.30;99.90
3842;DHT22;1936;47.074;15.336;2023-02-03T01:47:03;0.20;99.90
3842;DHT22;1936;47.074;15.336;2023-02-03T01:49:13;0.30;99.90
3842;DHT22;1936;47.074;15.336;2023-02-03T01:51:19;0.30;99.90
3842;DHT22;1936;47.074;15.336;2023-02-03T01:53:23;0.30;99.90
3842;DHT22;1936;47.074;15.336;2023-02-03T01:55:32;0.30;99.90
3842;DHT22;1936;47.074;15.336;2023-02-03T01:57:39;0.30;99.90
3842;DHT22;1936;47.074;15.336;2023-02-03T01:59:45;0.30;99.90
3842;DHT22;1936;47.074;15.336;2023-02-03T02:01:50;0.30;99.90
3842;DHT22;1936;47.074;15.336;2023-02-03T02:03:55;0.30;99.90
3842;DHT22;1936;47.074;15.336;2023-02-03T02:06:03;0.30;99.90
3842;DHT22;1936;47.074;15.336;2023-02-03T02:08:08;0.30;99.90
3842;DHT22;1936;47.074;15.336;2023-02-03T02:10:12;0.40;99.90
3842;DHT22;1936;47.074;15.336;2023-02-03T02:12:16;0.40;99.90
3842;DHT22;1936;47.074;15.336;2023-02-03T02:14:19;0.40;99.90
3842;DHT22;1936;47.074;15.336;2023-02-03T02:16:30;0.30;99.90
3842;DHT22;1936;47.074;15.336;2023-02-03T02:18:48;0.30;99.90
3842;DHT22;1936;47.074;15.336;2023-02-03T02:23:54;0.40;99.90
3842;DHT22;1936;47.074;15.336;2023-02-03T02:26:36;0.30;99.90
3842;DHT22;1936;47.074;15.336;2023-02-03T02:28:58;0.20;99.90
3842;DHT22;1936;47.074;15.336;2023-02-03T02:33:41;0.20;99.90
3842;DHT22;1936;47.074;15.336;2023-02-03T02:35:51;0.20;99.90
3842;DHT22;1936;47.074;15.336;2023-02-03T02:38:02;0.20;99.90
3842;DHT22;1936;47.074;15.336;2023-02-03T02:40:14;0.30;99.90
3842;DHT22;1936;47.074;15.336;2023-02-03T02:42:25;0.30;99.90
3842;DHT22;1936;47.074;15.336;2023-02-03T02:44:35;0.30;99.90
3842;DHT22;1936;47.074;15.336;2023-02-03T02:46:43;0.30;99.90
3842;DHT22;1936;47.074;15.336;2023-02-03T02:48:54;0.30;99.90
3842;DHT22;1936;47.074;15.336;2023-02-03T02:51:01;0.20;99.90
3842;DHT22;1936;47.074;15.336;2023-02-03T02:53:06;0.20;99.90
3842;DHT22;1936;47.074;15.336;2023-02-03T02:55:14;0.20;99.90
3842;DHT22;1936;47.074;15.336;2023-02-03T02:57:20;0.20;99.90
3842;DHT22;1936;47.074;15.336;2023-02-03T02:59:26;0.10;99.90
3842;DHT22;1936;47.074;15.336;2023-02-03T03:01:29;0.10;99.90
3842;DHT22;1936;47.074;15.336;2023-02-03T03:03:33;0.10;99.90
3842;DHT22;1936;47.074;15.336;2023-02-03T03:05:38;0.10;99.90
3842;DHT22;1936;47.074;15.336;2023-02-03T03:07:44;0.10;99.90
3842;DHT22;1936;47.074;15.336;2023-02-03T03:09:51;0.10;99.90
3842;DHT22;1936;47.074;15.336;2023-02-03T03:11:59;0.10;99.90
3842;DHT22;1936;47.074;15.336;2023-02-03T03:14:05;0.20;99.90
3842;DHT22;1936;47.074;15.336;2023-02-03T03:16:11;0.20;99.90
3842;DHT22;1936;47.074;15.336;2023-02-03T03:18:19;0.10;99.90
3842;DHT22;1936;47.074;15.336;2023-02-03T03:20:24;0.10;99.90
3842;DHT22;1936;47.074;15.336;2023-02-03T03:22:35;0.00;99.90
3842;DHT22;1936;47.074;15.336;2023-02-03T03:24:44;-0.10;99.90
3842;DHT22;1936;47.074;15.336;2023-02-03T03:26:52;-0.10;99.90
3842;DHT22;1936;47.074;15.336;2023-02-03T03:29:05;-0.10;99.90
3842;DHT22;1936;47.074;15.336;2023-02-03T03:31:09;-0.10;99.90
3842;DHT22;1936;47.074;15.336;2023-02-03T03:33:13;-0.10;99.90
3842;DHT22;1936;47.074;15.336;2023-02-03T03:35:16;0.10;99.90
3842;DHT22;1936;47.074;15.336;2023-02-03T03:37:23;0.10;99.90
3842;DHT22;1936;47.074;15.336;2023-02-03T03:39:36;0.00;99.90
3842;DHT22;1936;47.074;15.336;2023-02-03T03:41:52;0.00;99.90
3842;DHT22;1936;47.074;15.336;2023-02-03T03:44:02;0.10;99.90
3842;DHT22;1936;47.074;15.336;2023-02-03T03:46:11;0.20;99.90
3842;DHT22;1936;47.074;15.336;2023-02-03T03:48:20;0.10;99.90
3842;DHT22;1936;47.074;15.336;2023-02-03T03:50:26;0.10;99.90
3842;DHT22;1936;47.074;15.336;2023-02-03T03:52:33;0.20;99.90
3842;DHT22;1936;47.074;15.336;2023-02-03T03:54:40;0.10;99.90
3842;DHT22;1936;47.074;15.336;2023-02-03T03:56:48;0.10;99.90
3842;DHT22;1936;47.074;15.336;2023-02-03T03:58:53;0.20;99.90
3842;DHT22;1936;47.074;15.336;2023-02-03T04:00:59;0.20;99.90
3842;DHT22;1936;47.074;15.336;2023-02-03T04:03:13;0.20;99.90
3842;DHT22;1936;47.074;15.336;2023-02-03T04:05:18;0.10;99.90
3842;DHT22;1936;47.074;15.336;2023-02-03T04:07:21;0.30;99.90
3842;DHT22;1936;47.074;15.336;2023-02-03T04:09:25;0.20;99.90
3842;DHT22;1936;47.074;15.336;2023-02-03T04:11:30;0.10;99.90
3842;DHT22;1936;47.074;15.336;2023-02-03T04:13:53;0.10;99.90
3842;DHT22;1936;47.074;15.336;2023-02-03T04:15:56;0.10;99.90
3842;DHT22;1936;47.074;15.336;2023-02-03T04:17:59;0.00;99.90
3842;DHT22;1936;47.074;15.336;2023-02-03T04:20:03;0.00;99.90
3842;DHT22;1936;47.074;15.336;2023-02-03T04:22:07;0.00;99.90
3842;DHT22;1936;47.074;15.336;2023-02-03T04:24:10;0.00;99.90
3842;DHT22;1936;47.074;15.336;2023-02-03T04:26:14;-0.10;99.90
3842;DHT22;1936;47.074;15.336;2023-02-03T04:28:18;-0.10;99.90
3842;DHT22;1936;47.074;15.336;2023-02-03T04:30:22;-0.10;99.90
3842;DHT22;1936;47.074;15.336;2023-02-03T04:32:26;0.00;99.90
3842;DHT22;1936;47.074;15.336;2023-02-03T04:34:30;0.10;99.90
3842;DHT22;1936;47.074;15.336;2023-02-03T04:36:33;0.10;99.90
3842;DHT22;1936;47.074;15.336;2023-02-03T04:38:36;0.10;99.90
3842;DHT22;1936;47.074;15.336;2023-02-03T04:40:40;0.10;99.90
3842;DHT22;1936;47.074;15.336;2023-02-03T04:42:43;0.20;99.90
3842;DHT22;1936;47.074;15.336;2023-02-03T04:44:48;0.30;99.90
3842;DHT22;1936;47.074;15.336;2023-02-03T04:46:51;0.20;99.90
3842;DHT22;1936;47.074;15.336;2023-02-03T04:48:54;0.20;99.90
3842;DHT22;1936;47.074;15.336;2023-02-03T04:51:00;0.20;99.90
3842;DHT22;1936;47.074;15.336;2023-02-03T04:53:04;0.20;99.90
3842;DHT22;1936;47.074;15.336;2023-02-03T04:55:08;0.20;99.90
3842;DHT22;1936;47.074;15.336;2023-02-03T04:57:11;0.20;99.90
3842;DHT22;1936;47.074;15.336;2023-02-03T04:59:15;0.20;99.90
3842;DHT22;1936;47.074;15.336;2023-02-03T05:01:19;0.30;99.90
3842;DHT22;1936;47.074;15.336;2023-02-03T05:03:23;0.20;99.90
3842;DHT22;1936;47.074;15.336;2023-02-03T05:05:27;0.30;99.90
3842;DHT22;1936;47.074;15.336;2023-02-03T05:07:30;0.30;99.90
3842;DHT22;1936;47.074;15.336;2023-02-03T05:09:34;0.20;99.90
3842;DHT22;1936;47.074;15.336;2023-02-03T05:11:37;0.20;99.90
3842;DHT22;1936;47.074;15.336;2023-02-03T05:13:40;0.30;99.90
3842;DHT22;1936;47.074;15.336;2023-02-03T05:15:44;0.20;99.90
3842;DHT22;1936;47.074;15.336;2023-02-03T05:17:50;0.30;99.90
3842;DHT22;1936;47.074;15.336;2023-02-03T05:19:54;0.30;99.90
3842;DHT22;1936;47.074;15.336;2023-02-03T05:21:57;0.20;99.90
3842;DHT22;1936;47.074;15.336;2023-02-03T05:24:01;0.20;99.90
3842;DHT22;1936;47.074;15.336;2023-02-03T05:26:08;0.20;99.90
3842;DHT22;1936;47.074;15.336;2023-02-03T05:28:11;0.30;99.90
3842;DHT22;1936;47.074;15.336;2023-02-03T05:30:15;0.30;99.90
3842;DHT22;1936;47.074;15.336;2023-02-03T05:32:18;0.20;99.90
3842;DHT22;1936;47.074;15.336;2023-02-03T05:34:23;0.20;99.90
3842;DHT22;1936;47.074;15.336;2023-02-03T05:36:27;0.20;99.90
3842;DHT22;1936;47.074;15.336;2023-02-03T05:38:30;0.20;99.90
3842;DHT22;1936;47.074;15.336;2023-02-03T05:40:33;0.20;99.90
3842;DHT22;1936;47.074;15.336;2023-02-03T05:42:54;0.20;99.90
3842;DHT22;1936;47.074;15.336;2023-02-03T05:44:57;0.20;99.90
3842;DHT22;1936;47.074;15.336;2023-02-03T05:47:00;0.20;99.90
3842;DHT22;1936;47.074;15.336;2023-02-03T05:49:04;0.10;99.90
3842;DHT22;1936;47.074;15.336;2023-02-03T05:51:09;0.20;99.90
3842;DHT22;1936;47.074;15.336;2023-02-03T05:53:12;0.20;99.90
3842;DHT22;1936;47.074;15.336;2023-02-03T05:55:15;0.20;99.90
3842;DHT22;1936;47.074;15.336;2023-02-03T05:57:19;0.20;99.90
3842;DHT22;1936;47.074;15.336;2023-02-03T05:59:22;0.20;99.90
3842;DHT22;1936;47.074;15.336;2023-02-03T06:01:25;0.20;99.90
3842;DHT22;1936;47.074;15.336;2023-02-03T06:03:29;0.20;99.90
3842;DHT22;1936;47.074;15.336;2023-02-03T06:05:33;0.30;99.90
3842;DHT22;1936;47.074;15.336;2023-02-03T06:07:41;0.30;99.90
3842;DHT22;1936;47.074;15.336;2023-02-03T06:09:44;0.20;99.90
3842;DHT22;1936;47.074;15.336;2023-02-03T06:11:48;0.20;99.90
3842;DHT22;1936;47.074;15.336;2023-02-03T06:13:51;0.30;99.90
3842;DHT22;1936;47.074;15.336;2023-02-03T06:15:56;0.30;99.90
3842;DHT22;1936;47.074;15.336;2023-02-03T06:17:59;0.20;99.90
3842;DHT22;1936;47.074;15.336;2023-02-03T06:20:03;0.20;99.90
3842;DHT22;1936;47.074;15.336;2023-02-03T06:22:07;0.20;99.90
3842;DHT22;1936;47.074;15.336;2023-02-03T06:24:11;0.10;99.90
3842;DHT22;1936;47.074;15.336;2023-02-03T06:26:15;0.10;99.90
3842;DHT22;1936;47.074;15.336;2023-02-03T06:28:18;0.10;99.90
3842;DHT22;1936;47.074;15.336;2023-02-03T06:30:22;0.10;99.90
3842;DHT22;1936;47.074;15.336;2023-02-03T06:32:26;0.10;99.90
3842;DHT22;1936;47.074;15.336;2023-02-03T06:34:29;0.00;99.90
3842;DHT22;1936;47.074;15.336;2023-02-03T06:36:33;0.00;99.90
3842;DHT22;1936;47.074;15.336;2023-02-03T06:38:37;0.00;99.90
3842;DHT22;1936;47.074;15.336;2023-02-03T06:40:42;0.10;99.90
3842;DHT22;1936;47.074;15.336;2023-02-03T06:42:48;0.10;99.90
3842;DHT22;1936;47.074;15.336;2023-02-03T06:44:52;0.20;99.90
3842;DHT22;1936;47.074;15.336;2023-02-03T06:46:55;0.30;99.90
3842;DHT22;1936;47.074;15.336;2023-02-03T06:48:59;0.30;99.90
3842;DHT22;1936;47.074;15.336;2023-02-03T06:51:03;0.40;99.90
3842;DHT22;1936;47.074;15.336;2023-02-03T06:53:07;0.50;99.90
3842;DHT22;1936;47.074;15.336;2023-02-03T06:55:10;0.50;99.90
3842;DHT22;1936;47.074;15.336;2023-02-03T06:57:15;0.50;99.90
3842;DHT22;1936;47.074;15.336;2023-02-03T06:59:19;0.60;99.90
3842;DHT22;1936;47.074;15.336;2023-02-03T07:01:22;0.60;99.90
3842;DHT22;1936;47.074;15.336;2023-02-03T07:03:26;0.60;99.90
3842;DHT22;1936;47.074;15.336;2023-02-03T07:05:30;0.60;99.90
3842;DHT22;1936;47.074;15.336;2023-02-03T07:07:33;0.70;99.90
3842;DHT22;1936;47.074;15.336;2023-02-03T07:09:36;0.70;99.90
3842;DHT22;1936;47.074;15.336;2023-02-03T07:11:40;0.70;99.90
3842;DHT22;1936;47.074;15.336;2023-02-03T07:13:44;0.80;99.90
3842;DHT22;1936;47.074;15.336;2023-02-03T07:15:48;0.80;99.90
3842;DHT22;1936;47.074;15.336;2023-02-03T07:17:51;0.80;99.90
3842;DHT22;1936;47.074;15.336;2023-02-03T07:19:57;0.80;99.90
3842;DHT22;1936;47.074;15.336;2023-02-03T07:22:00;0.90;99.90
3842;DHT22;1936;47.074;15.336;2023-02-03T07:24:04;1.00;99.90
3842;DHT22;1936;47.074;15.336;2023-02-03T07:26:08;1.00;99.90
3842;DHT22;1936;47.074;15.336;2023-02-03T07:28:12;1.10;99.90
3842;DHT22;1936;47.074;15.336;2023-02-03T07:30:17;1.20;99.90
3842;DHT22;1936;47.074;15.336;2023-02-03T07:32:20;1.30;99.90
3842;DHT22;1936;47.074;15.336;2023-02-03T07:34:24;1.20;99.90
3842;DHT22;1936;47.074;15.336;2023-02-03T07:36:28;1.30;99.90
3842;DHT22;1936;47.074;15.336;2023-02-03T07:38:31;1.40;99.90
3842;DHT22;1936;47.074;15.336;2023-02-03T07:40:34;1.50;99.90
3842;DHT22;1936;47.074;15.336;2023-02-03T07:42:40;1.60;99.90
3842;DHT22;1936;47.074;15.336;2023-02-03T07:44:44;1.70;99.90
3842;DHT22;1936;47.074;15.336;2023-02-03T07:46:52;1.80;99.90
3842;DHT22;1936;47.074;15.336;2023-02-03T07:48:55;2.00;99.90
3842;DHT22;1936;47.074;15.336;2023-02-03T07:50:58;2.20;99.90
3842;DHT22;1936;47.074;15.336;2023-02-03T07:53:02;2.20;99.90
3842;DHT22;1936;47.074;15.336;2023-02-03T07:55:06;2.30;99.90
3842;DHT22;1936;47.074;15.336;2023-02-03T07:57:10;2.40;99.90
3842;DHT22;1936;47.074;15.336;2023-02-03T07:59:13;2.40;99.90
3842;DHT22;1936;47.074;15.336;2023-02-03T08:01:17;2.60;99.90
3842;DHT22;1936;47.074;15.336;2023-02-03T08:03:22;2.80;99.90
3842;DHT22;1936;47.074;15.336;2023-02-03T08:05:25;2.70;99.90
3842;DHT22;1936;47.074;15.336;2023-02-03T08:07:28;2.90;99.90
3842;DHT22;1936;47.074;15.336;2023-02-03T08:09:32;3.10;99.90
3842;DHT22;1936;47.074;15.336;2023-02-03T08:11:35;3.30;99.90
3842;DHT22;1936;47.074;15.336;2023-02-03T08:13:38;3.60;99.90
3842;DHT22;1936;47.074;15.336;2023-02-03T08:15:42;3.70;99.90
3842;DHT22;1936;47.074;15.336;2023-02-03T08:17:45;3.90;99.90
3842;DHT22;1936;47.074;15.336;2023-02-03T08:19:54;4.20;99.90
3842;DHT22;1936;47.074;15.336;2023-02-03T08:21:57;4.70;99.90
3842;DHT22;1936;47.074;15.336;2023-02-03T08:24:01;5.10;99.90
3842;DHT22;1936;47.074;15.336;2023-02-03T08:26:04;5.00;99.90
3842;DHT22;1936;47.074;15.336;2023-02-03T08:28:08;5.20;99.90
3842;DHT22;1936;47.074;15.336;2023-02-03T08:30:13;5.20;99.90
3842;DHT22;1936;47.074;15.336;2023-02-03T08:32:18;5.10;99.90
3842;DHT22;1936;47.074;15.336;2023-02-03T08:34:23;5.30;99.90
3842;DHT22;1936;47.074;15.336;2023-02-03T08:36:28;5.20;99.90
3842;DHT22;1936;47.074;15.336;2023-02-03T08:38:32;5.30;99.90
3842;DHT22;1936;47.074;15.336;2023-02-03T08:40:35;5.20;99.90
3842;DHT22;1936;47.074;15.336;2023-02-03T08:42:38;5.10;99.90
3842;DHT22;1936;47.074;15.336;2023-02-03T08:44:42;4.90;99.90
3842;DHT22;1936;47.074;15.336;2023-02-03T08:46:48;5.10;99.90
3842;DHT22;1936;47.074;15.336;2023-02-03T08:48:52;5.40;99.90
3842;DHT22;1936;47.074;15.336;2023-02-03T08:50:57;6.30;99.90
3842;DHT22;1936;47.074;15.336;2023-02-03T08:53:02;7.60;99.90
3842;DHT22;1936;47.074;15.336;2023-02-03T08:55:06;9.80;99.90
3842;DHT22;1936;47.074;15.336;2023-02-03T08:57:10;10.80;99.90
3842;DHT22;1936;47.074;15.336;2023-02-03T08:59:13;12.30;99.70
3842;DHT22;1936;47.074;15.336;2023-02-03T09:01:17;13.10;94.70
3842;DHT22;1936;47.074;15.336;2023-02-03T09:03:20;14.10;95.20
3842;DHT22;1936;47.074;15.336;2023-02-03T09:05:24;14.30;90.40
3842;DHT22;1936;47.074;15.336;2023-02-03T09:07:28;14.70;81.20
3842;DHT22;1936;47.074;15.336;2023-02-03T09:09:33;14.70;76.90
3842;DHT22;1936;47.074;15.336;2023-02-03T09:11:36;13.50;77.60
3842;DHT22;1936;47.074;15.336;2023-02-03T09:13:40;14.30;75.30
3842;DHT22;1936;47.074;15.336;2023-02-03T09:15:46;13.70;77.10
3842;DHT22;1936;47.074;15.336;2023-02-03T09:17:50;13.70;77.80
3842;DHT22;1936;47.074;15.336;2023-02-03T09:19:54;14.60;71.70
3842;DHT22;1936;47.074;15.336;2023-02-03T09:21:58;15.30;69.50
3842;DHT22;1936;47.074;15.336;2023-02-03T09:24:02;15.60;64.90
3842;DHT22;1936;47.074;15.336;2023-02-03T09:26:10;14.60;70.30
3842;DHT22;1936;47.074;15.336;2023-02-03T09:28:14;13.90;71.40
3842;DHT22;1936;47.074;15.336;2023-02-03T09:30:18;14.70;71.50
3842;DHT22;1936;47.074;15.336;2023-02-03T09:34:24;16.20;60.60
3842;DHT22;1936;47.074;15.336;2023-02-03T09:36:28;15.80;62.70
3842;DHT22;1936;47.074;15.336;2023-02-03T09:38:32;16.30;62.60
3842;DHT22;1936;47.074;15.336;2023-02-03T09:40:36;16.10;60.10
3842;DHT22;1936;47.074;15.336;2023-02-03T10:16:43;16.30;54.80
3842;DHT22;1936;47.074;15.336;2023-02-03T10:34:07;17.20;53.00
3842;DHT22;1936;47.074;15.336;2023-02-03T10:36:18;17.80;53.10
3842;DHT22;1936;47.074;15.336;2023-02-03T10:38:30;18.20;52.40
3842;DHT22;1936;47.074;15.336;2023-02-03T10:40:38;19.80;53.00
3842;DHT22;1936;47.074;15.336;2023-02-03T10:42:42;20.20;48.70
3842;DHT22;1936;47.074;15.336;2023-02-03T10:45:05;20.10;47.70
3842;DHT22;1936;47.074;15.336;2023-02-03T10:47:30;20.00;50.10
3842;DHT22;1936;47.074;15.336;2023-02-03T10:49:37;19.40;52.10
3842;DHT22;1936;47.074;15.336;2023-02-03T10:51:45;18.50;52.30
3842;DHT22;1936;47.074;15.336;2023-02-03T10:53:51;18.50;53.30
3842;DHT22;1936;47.074;15.336;2023-02-03T10:56:02;18.40;54.10
3842;DHT22;1936;47.074;15.336;2023-02-03T10:58:13;18.80;52.60
3842;DHT22;1936;47.074;15.336;2023-02-03T11:00:21;18.00;54.10
3842;DHT22;1936;47.074;15.336;2023-02-03T11:02:27;17.10;54.70
3842;DHT22;1936;47.074;15.336;2023-02-03T11:04:32;16.60;57.00
3842;DHT22;1936;47.074;15.336;2023-02-03T11:06:53;15.70;57.90
3842;DHT22;1936;47.074;15.336;2023-02-03T11:08:57;15.10;59.00
3842;DHT22;1936;47.074;15.336;2023-02-03T11:11:02;14.50;59.30
3842;DHT22;1936;47.074;15.336;2023-02-03T11:13:17;14.00;61.60
3842;DHT22;1936;47.074;15.336;2023-02-03T11:15:20;13.80;63.40
3842;DHT22;1936;47.074;15.336;2023-02-03T11:17:26;13.80;64.90
3842;DHT22;1936;47.074;15.336;2023-02-03T11:19:31;13.30;66.30
3842;DHT22;1936;47.074;15.336;2023-02-03T11:21:42;13.40;66.40
3842;DHT22;1936;47.074;15.336;2023-02-03T11:23:51;12.40;69.60
3842;DHT22;1936;47.074;15.336;2023-02-03T11:25:55;12.70;70.90
3842;DHT22;1936;47.074;15.336;2023-02-03T11:28:05;12.60;72.90
3842;DHT22;1936;47.074;15.336;2023-02-03T11:30:15;12.50;73.00
3842;DHT22;1936;47.074;15.336;2023-02-03T11:32:23;12.70;77.10
3842;DHT22;1936;47.074;15.336;2023-02-03T11:34:32;12.30;78.50
3842;DHT22;1936;47.074;15.336;2023-02-03T11:36:37;12.00;82.40
3842;DHT22;1936;47.074;15.336;2023-02-03T11:38:41;12.10;82.90
3842;DHT22;1936;47.074;15.336;2023-02-03T11:40:45;12.20;84.60
3842;DHT22;1936;47.074;15.336;2023-02-03T11:43:03;12.30;82.00
3842;DHT22;1936;47.074;15.336;2023-02-03T11:45:25;12.10;78.40
3842;DHT22;1936;47.074;15.336;2023-02-03T11:47:28;11.80;82.00
3842;DHT22;1936;47.074;15.336;2023-02-03T11:50:04;12.30;81.00
3842;DHT22;1936;47.074;15.336;2023-02-03T11:52:31;11.90;80.40
3842;DHT22;1936;47.074;15.336;2023-02-03T11:54:45;11.80;83.60
3842;DHT22;1936;47.074;15.336;2023-02-03T11:57:06;12.40;80.50
3842;DHT22;1936;47.074;15.336;2023-02-03T12:02:16;12.90;81.20
3842;DHT22;1936;47.074;15.336;2023-02-03T12:04:44;12.40;85.20
3842;DHT22;1936;47.074;15.336;2023-02-03T12:07:19;12.40;82.00
3842;DHT22;1936;47.074;15.336;2023-02-03T12:09:33;12.10;85.40
3842;DHT22;1936;47.074;15.336;2023-02-03T12:12:06;11.70;90.40
3842;DHT22;1936;47.074;15.336;2023-02-03T12:14:31;11.60;90.60
3842;DHT22;1936;47.074;15.336;2023-02-03T12:17:03;11.30;93.60
3842;DHT22;1936;47.074;15.336;2023-02-03T12:19:15;10.90;94.90
3842;DHT22;1936;47.074;15.336;2023-02-03T12:21:32;11.00;96.50
3842;DHT22;1936;47.074;15.336;2023-02-03T12:23:44;11.10;97.60
3842;DHT22;1936;47.074;15.336;2023-02-03T12:25:59;11.20;96.60
3842;DHT22;1936;47.074;15.336;2023-02-03T12:28:19;11.20;94.60
3842;DHT22;1936;47.074;15.336;2023-02-03T12:30:38;11.20;96.20
3842;DHT22;1936;47.074;15.336;2023-02-03T12:32:48;11.10;99.50
3842;DHT22;1936;47.074;15.336;2023-02-03T12:34:56;11.00;99.80
3842;DHT22;1936;47.074;15.336;2023-02-03T12:37:06;11.30;99.90
3842;DHT22;1936;47.074;15.336;2023-02-03T12:39:14;11.50;99.10
3842;DHT22;1936;47.074;15.336;2023-02-03T12:41:21;11.50;98.10
3842;DHT22;1936;47.074;15.336;2023-02-03T12:43:33;11.60;96.50
3842;DHT22;1936;47.074;15.336;2023-02-03T12:45:39;11.40;98.60
3842;DHT22;1936;47.074;15.336;2023-02-03T12:47:46;11.60;97.60
3842;DHT22;1936;47.074;15.336;2023-02-03T12:49:55;11.80;95.30
3842;DHT22;1936;47.074;15.336;2023-02-03T12:52:03;11.70;96.00
3842;DHT22;1936;47.074;15.336;2023-02-03T12:54:17;12.30;95.00
3842;DHT22;1936;47.074;15.336;2023-02-03T12:56:26;12.70;92.30
3842;DHT22;1936;47.074;15.336;2023-02-03T12:58:38;12.10;92.50
3842;DHT22;1936;47.074;15.336;2023-02-03T13:00:46;12.60;90.10
3842;DHT22;1936;47.074;15.336;2023-02-03T13:03:05;12.50;91.20
3842;DHT22;1936;47.074;15.336;2023-02-03T13:05:18;12.40;90.90
3842;DHT22;1936;47.074;15.336;2023-02-03T13:07:26;12.70;90.80
3842;DHT22;1936;47.074;15.336;2023-02-03T13:09:37;12.50;90.00
3842;DHT22;1936;47.074;15.336;2023-02-03T13:11:47;12.50;89.10
3842;DHT22;1936;47.074;15.336;2023-02-03T13:13:58;12.50;89.00
3842;DHT22;1936;47.074;15.336;2023-02-03T13:16:07;12.80;88.40
3842;DHT22;1936;47.074;15.336;2023-02-03T13:18:20;12.20;90.60
3842;DHT22;1936;47.074;15.336;2023-02-03T13:20:31;12.30;90.60
3842;DHT22;1936;47.074;15.336;2023-02-03T13:22:37;12.00;90.60
3842;DHT22;1936;47.074;15.336;2023-02-03T13:24:44;11.80;91.30
3842;DHT22;1936;47.074;15.336;2023-02-03T13:27:16;11.60;93.20
3842;DHT22;1936;47.074;15.336;2023-02-03T13:29:41;11.50;93.10
3842;DHT22;1936;47.074;15.336;2023-02-03T13:32:01;11.30;94.40
3842;DHT22;1936;47.074;15.336;2023-02-03T13:34:22;11.50;95.00
3842;DHT22;1936;47.074;15.336;2023-02-03T13:39:25;11.70;98.10
3842;DHT22;1936;47.074;15.336;2023-02-03T13:41:38;11.40;96.60
3842;DHT22;1936;47.074;15.336;2023-02-03T13:43:47;11.30;98.70
3842;DHT22;1936;47.074;15.336;2023-02-03T13:45:53;10.70;94.00
3842;DHT22;1936;47.074;15.336;2023-02-03T13:47:59;10.30;94.60
3842;DHT22;1936;47.074;15.336;2023-02-03T13:50:18;10.20;95.80
3842;DHT22;1936;47.074;15.336;2023-02-03T13:52:30;10.30;99.90
3842;DHT22;1936;47.074;15.336;2023-02-03T13:54:37;10.00;99.90
3842;DHT22;1936;47.074;15.336;2023-02-03T13:56:53;9.90;99.90
3842;DHT22;1936;47.074;15.336;2023-02-03T13:59:03;9.80;97.10
3842;DHT22;1936;47.074;15.336;2023-02-03T14:01:31;10.00;99.90
3842;DHT22;1936;47.074;15.336;2023-02-03T14:03:45;9.90;91.50
3842;DHT22;1936;47.074;15.336;2023-02-03T14:05:52;10.00;86.90
3842;DHT22;1936;47.074;15.336;2023-02-03T14:07:55;9.90;83.50
3842;DHT22;1936;47.074;15.336;2023-02-03T14:10:14;9.80;82.50
3842;DHT22;1936;47.074;15.336;2023-02-03T14:12:20;9.80;83.70
3842;DHT22;1936;47.074;15.336;2023-02-03T14:14:43;9.90;81.50
3842;DHT22;1936;47.074;15.336;2023-02-03T14:16:50;9.90;77.90
3842;DHT22;1936;47.074;15.336;2023-02-03T14:18:56;9.90;76.70
3842;DHT22;1936;47.074;15.336;2023-02-03T14:21:20;9.70;82.00
3842;DHT22;1936;47.074;15.336;2023-02-03T14:23:39;9.60;80.70
3842;DHT22;1936;47.074;15.336;2023-02-03T14:25:46;9.60;83.30
3842;DHT22;1936;47.074;15.336;2023-02-03T14:27:58;9.60;80.30
3842;DHT22;1936;47.074;15.336;2023-02-03T14:30:03;9.60;83.70
3842;DHT22;1936;47.074;15.336;2023-02-03T14:32:10;9.50;80.20
3842;DHT22;1936;47.074;15.336;2023-02-03T14:34:15;9.50;78.00
3842;DHT22;1936;47.074;15.336;2023-02-03T14:36:37;9.40;77.60
3842;DHT22;1936;47.074;15.336;2023-02-03T14:38:42;9.30;80.50
3842;DHT22;1936;47.074;15.336;2023-02-03T14:40:50;9.40;79.00
3842;DHT22;1936;47.074;15.336;2023-02-03T14:43:19;9.30;79.30
3842;DHT22;1936;47.074;15.336;2023-02-03T14:45:41;9.20;81.40
3842;DHT22;1936;47.074;15.336;2023-02-03T14:47:59;9.20;81.70
3842;DHT22;1936;47.074;15.336;2023-02-03T14:50:25;9.10;77.50